sensor_id;sensor_type;location;lat;lon;timestamp;temperature;humidity
20526;DHT22;10421;49.142;9.232;2023-07-02T00:01:50;20.30;99.90
20526;DHT22;10421;49.142;9.232;2023-07-02T00:04:18;20.20;99.90
20526;DHT22;10421;49.142;9.232;2023-07-02T00:06:46;20.20;99.90
20526;DHT22;10421;49.142;9.232;2023-07-02T00:09:14;20.20;99.90
20526;DHT22;10421;49.142;9.232;2023-07-02T00:11:43;20.20;99.90
20526;DHT22;10421;49.142;9.232;2023-07-02T00:14:11;20.20;99.90
20526;DHT22;10421;49.142;9.232;2023-07-02T00:16:42;20.20;99.90
20526;DHT22;10421;49.142;9.232;2023-07-02T00:19:09;20.20;99.90
20526;DHT22;10421;49.142;9.232;2023-07-02T00:21:38;20.10;99.90
20526;DHT22;10421;49.142;9.232;2023-07-02T00:24:06;20.10;99.90
20526;DHT22;10421;49.142;9.232;2023-07-02T00:26:35;20.10;99.90
20526;DHT22;10421;49.142;9.232;2023-07-02T00:29:02;20.10;99.90
20526;DHT22;10421;49.142;9.232;2023-07-02T00:31:31;20.10;99.90
20526;DHT22;10421;49.142;9.232;2023-07-02T00:33:58;20.10;99.90
20526;DHT22;10421;49.142;9.232;2023-07-02T00:36:26;20.10;99.90
20526;DHT22;10421;49.142;9.232;2023-07-02T00:38:55;20.00;99.90
20526;DHT22;10421;49.142;9.232;2023-07-02T00:41:22;20.10;99.90
20526;DHT22;10421;49.142;9.232;2023-07-02T00:43:49;20.10;99.90
20526;DHT22;10421;49.142;9.232;2023-07-02T00:46:20;20.10;99.90
20526;DHT22;10421;49.142;9.232;2023-07-02T00:48:48;20.10;99.90
20526;DHT22;10421;49.142;9.232;2023-07-02T00:51:16;20.20;99.90
20526;DHT22;10421;49.142;9.232;2023-07-02T00:53:44;20.30;99.90
20526;DHT22;10421;49.142;9.232;2023-07-02T00:56:12;20.30;99.90
20526;DHT22;10421;49.142;9.232;2023-07-02T00:58:40;20.40;99.90
20526;DHT22;10421;49.142;9.232;2023-07-02T01:01:14;20.30;99.90
20526;DHT22;10421;49.142;9.232;2023-07-02T01:03:50;20.30;99.90
20526;DHT22;10421;49.142;9.232;2023-07-02T01:06:19;20.40;99.90
20526;DHT22;10421;49.142;9.232;2023-07-02T01:08:50;20.30;99.90
20526;DHT22;10421;49.142;9.232;2023-07-02T01:11:19;20.40;99.90
20526;DHT22;10421;49.142;9.232;2023-07-02T01:13:48;20.30;99.90
20526;DHT22;10421;49.142;9.232;2023-07-02T01:16:16;20.40;99.90
20526;DHT22;10421;49.142;9.232;2023-07-02T01:18:43;20.30;99.90
20526;DHT22;10421;49.142;9.232;2023-07-02T01:21:11;20.30;99.90
20526;DHT22;10421;49.142;9.232;2023-07-02T01:23:38;20.20;99.90
20526;DHT22;10421;49.142;9.232;2023-07-02T01:26:05;20.20;99.90
20526;DHT22;10421;49.142;9.232;2023-07-02T01:28:35;20.30;99.90
20526;DHT22;10421;49.142;9.232;2023-07-02T01:31:03;20.30;99.90
20526;DHT22;10421;49.142;9.232;2023-07-02T01:33:30;20.30;99.90
20526;DHT22;10421;49.142;9.232;2023-07-02T01:35:57;20.40;99.90
20526;DHT22;10421;49.142;9.232;2023-07-02T01:38:25;20.40;99.90
20526;DHT22;10421;49.142;9.232;2023-07-02T01:40:53;20.30;99.90
20526;DHT22;10421;49.142;9.232;2023-07-02T01:43:20;20.30;99.90
20526;DHT22;10421;49.142;9.232;2023-07-02T01:45:48;20.30;99.90
20526;DHT22;10421;49.142;9.232;2023-07-02T01:48:14;20.30;99.90
20526;DHT22;10421;49.142;9.232;2023-07-02T01:50:41;20.20;99.90
20526;DHT22;10421;49.142;9.232;2023-07-02T01:53:08;20.20;99.90
20526;DHT22;10421;49.142;9.232;2023-07-02T01:55:36;20.20;99.90
20526;DHT22;10421;49.142;9.232;2023-07-02T01:58:03;20.10;99.90
20526;DHT22;10421;49.142;9.232;2023-07-02T02:00:29;20.10;99.90
20526;DHT22;10421;49.142;9.232;2023-07-02T02:02:56;20.10;99.90
20526;DHT22;10421;49.142;9.232;2023-07-02T02:05:23;20.20;99.90
20526;DHT22;10421;49.142;9.232;2023-07-02T02:07:49;20.20;99.90
20526;DHT22;10421;49.142;9.232;2023-07-02T02:10:16;20.30;99.90
20526;DHT22;10421;49.142;9.232;2023-07-02T02:12:44;20.30;99.90
20526;DHT22;10421;49.142;9.232;2023-07-02T02:15:11;20.30;99.90
20526;DHT22;10421;49.142;9.232;2023-07-02T02:17:39;20.30;99.90
20526;DHT22;10421;49.142;9.232;2023-07-02T02:20:07;20.30;99.90
20526;DHT22;10421;49.142;9.232;2023-07-02T02:22:34;20.30;99.90
20526;DHT22;10421;49.142;9.232;2023-07-02T02:25:01;20.20;99.90
20526;DHT22;10421;49.142;9.232;2023-07-02T02:27:28;20.30;99.90
20526;DHT22;10421;49.142;9.232;2023-07-02T02:29:57;20.30;99.90
20526;DHT22;10421;49.142;9.232;2023-07-02T02:32:23;20.30;99.90
20526;DHT22;10421;49.142;9.232;2023-07-02T02:34:50;20.40;99.90
20526;DHT22;10421;49.142;9.232;2023-07-02T02:37:18;20.50;99.90
20526;DHT22;10421;49.142;9.232;2023-07-02T02:39:44;20.50;99.90
20526;DHT22;10421;49.142;9.232;2023-07-02T02:42:11;20.50;99.90
20526;DHT22;10421;49.142;9.232;2023-07-02T02:44:38;20.30;99.90
20526;DHT22;10421;49.142;9.232;2023-07-02T02:47:06;20.20;99.90
20526;DHT22;10421;49.142;9.232;2023-07-02T02:49:33;20.30;99.90
20526;DHT22;10421;49.142;9.232;2023-07-02T02:52:00;20.30;99.80
20526;DHT22;10421;49.142;9.232;2023-07-02T02:54:26;20.30;99.40
20526;DHT22;10421;49.142;9.232;2023-07-02T02:56:53;20.40;99.30
20526;DHT22;10421;49.142;9.232;2023-07-02T02:59:20;20.30;98.60
20526;DHT22;10421;49.142;9.232;2023-07-02T03:01:46;20.20;98.10
20526;DHT22;10421;49.142;9.232;2023-07-02T03:04:15;20.20;97.90
20526;DHT22;10421;49.142;9.232;2023-07-02T03:06:41;20.30;97.80
20526;DHT22;10421;49.142;9.232;2023-07-02T03:09:08;20.40;97.70
20526;DHT22;10421;49.142;9.232;2023-07-02T03:11:36;20.30;97.60
20526;DHT22;10421;49.142;9.232;2023-07-02T03:14:02;20.40;97.50
20526;DHT22;10421;49.142;9.232;2023-07-02T03:16:29;20.30;97.60
20526;DHT22;10421;49.142;9.232;2023-07-02T03:18:56;20.20;97.90
20526;DHT22;10421;49.142;9.232;2023-07-02T03:21:24;20.30;98.20
20526;DHT22;10421;49.142;9.232;2023-07-02T03:23:51;20.30;98.30
20526;DHT22;10421;49.142;9.232;2023-07-02T03:26:17;20.10;98.50
20526;DHT22;10421;49.142;9.232;2023-07-02T03:28:45;20.00;98.60
20526;DHT22;10421;49.142;9.232;2023-07-02T03:31:12;20.00;98.70
20526;DHT22;10421;49.142;9.232;2023-07-02T03:33:38;19.90;98.80
20526;DHT22;10421;49.142;9.232;2023-07-02T03:36:05;19.80;99.00
20526;DHT22;10421;49.142;9.232;2023-07-02T03:38:34;19.80;99.10
20526;DHT22;10421;49.142;9.232;2023-07-02T03:41:01;19.80;99.30
20526;DHT22;10421;49.142;9.232;2023-07-02T03:43:27;19.70;99.70
20526;DHT22;10421;49.142;9.232;2023-07-02T03:45:54;19.60;99.90
20526;DHT22;10421;49.142;9.232;2023-07-02T03:48:21;19.60;99.90
20526;DHT22;10421;49.142;9.232;2023-07-02T03:50:47;19.50;99.90
20526;DHT22;10421;49.142;9.232;2023-07-02T03:53:14;19.50;99.90
20526;DHT22;10421;49.142;9.232;2023-07-02T03:55:42;19.40;99.90
20526;DHT22;10421;49.142;9.232;2023-07-02T03:58:09;19.30;99.90
20526;DHT22;10421;49.142;9.232;2023-07-02T04:00:36;19.30;99.90
20526;DHT22;10421;49.142;9.232;2023-07-02T04:03:02;19.20;99.90
20526;DHT22;10421;49.142;9.232;2023-07-02T04:05:29;19.20;99.90
20526;DHT22;10421;49.142;9.232;2023-07-02T04:07:56;19.20;99.90
20526;DHT22;10421;49.142;9.232;2023-07-02T04:10:23;19.20;99.90
20526;DHT22;10421;49.142;9.232;2023-07-02T04:12:51;19.30;99.90
20526;DHT22;10421;49.142;9.232;2023-07-02T04:15:17;19.20;99.90
20526;DHT22;10421;49.142;9.232;2023-07-02T04:17:44;19.20;99.90
20526;DHT22;10421;49.142;9.232;2023-07-02T04:20:11;19.30;99.90
20526;DHT22;10421;49.142;9.232;2023-07-02T04:22:38;19.20;99.90
20526;DHT22;10421;49.142;9.232;2023-07-02T04:25:05;19.30;99.90
20526;DHT22;10421;49.142;9.232;2023-07-02T04:27:32;19.30;99.90
20526;DHT22;10421;49.142;9.232;2023-07-02T04:30:00;19.30;99.90
20526;DHT22;10421;49.142;9.232;2023-07-02T04:32:27;19.30;99.90
20526;DHT22;10421;49.142;9.232;2023-07-02T04:34:54;19.20;99.90
20526;DHT22;10421;49.142;9.232;2023-07-02T04:37:21;19.20;99.90
20526;DHT22;10421;49.142;9.232;2023-07-02T04:39:48;19.00;99.90
20526;DHT22;10421;49.142;9.232;2023-07-02T04:42:15;19.00;99.90
20526;DHT22;10421;49.142;9.232;2023-07-02T04:44:42;19.00;99.90
20526;DHT22;10421;49.142;9.232;2023-07-02T04:47:10;18.90;99.90
20526;DHT22;10421;49.142;9.232;2023-07-02T04:49:37;19.00;99.90
20526;DHT22;10421;49.142;9.232;2023-07-02T04:52:04;19.00;99.90
20526;DHT22;10421;49.142;9.232;2023-07-02T04:54:31;19.00;99.90
20526;DHT22;10421;49.142;9.232;2023-07-02T04:56:58;18.90;99.90
20526;DHT22;10421;49.142;9.232;2023-07-02T04:59:25;19.00;99.90
20526;DHT22;10421;49.142;9.232;2023-07-02T05:01:52;19.00;99.90
20526;DHT22;10421;49.142;9.232;2023-07-02T05:04:20;19.10;99.90
20526;DHT22;10421;49.142;9.232;2023-07-02T05:06:47;19.10;99.90
20526;DHT22;10421;49.142;9.232;2023-07-02T05:09:14;19.10;99.90
20526;DHT22;10421;49.142;9.232;2023-07-02T05:11:40;19.10;99.90
20526;DHT22;10421;49.142;9.232;2023-07-02T05:14:07;19.10;99.90
20526;DHT22;10421;49.142;9.232;2023-07-02T05:16:34;19.20;99.90
20526;DHT22;10421;49.142;9.232;2023-07-02T05:19:00;19.10;99.90
20526;DHT22;10421;49.142;9.232;2023-07-02T05:21:29;19.10;99.90
20526;DHT22;10421;49.142;9.232;2023-07-02T05:23:55;19.20;99.90
20526;DHT22;10421;49.142;9.232;2023-07-02T05:26:22;19.10;99.90
20526;DHT22;10421;49.142;9.232;2023-07-02T05:28:49;19.20;99.90
20526;DHT22;10421;49.142;9.232;2023-07-02T05:31:15;19.20;99.90
20526;DHT22;10421;49.142;9.232;2023-07-02T05:33:42;19.20;99.90
20526;DHT22;10421;49.142;9.232;2023-07-02T05:36:09;19.30;99.90
20526;DHT22;10421;49.142;9.232;2023-07-02T05:38:37;19.30;99.90
20526;DHT22;10421;49.142;9.232;2023-07-02T05:41:04;19.40;99.90
20526;DHT22;10421;49.142;9.232;2023-07-02T05:43:30;19.40;99.90
20526;DHT22;10421;49.142;9.232;2023-07-02T05:45:58;19.30;99.90
20526;DHT22;10421;49.142;9.232;2023-07-02T05:48:26;19.40;99.90
20526;DHT22;10421;49.142;9.232;2023-07-02T05:50:54;19.40;99.90
20526;DHT22;10421;49.142;9.232;2023-07-02T05:53:21;19.40;99.90
20526;DHT22;10421;49.142;9.232;2023-07-02T05:55:49;19.40;99.90
20526;DHT22;10421;49.142;9.232;2023-07-02T05:58:16;19.40;99.90
20526;DHT22;10421;49.142;9.232;2023-07-02T06:00:42;19.40;99.90
20526;DHT22;10421;49.142;9.232;2023-07-02T06:03:14;19.40;99.90
20526;DHT22;10421;49.142;9.232;2023-07-02T06:05:46;19.40;99.90
20526;DHT22;10421;49.142;9.232;2023-07-02T06:08:12;19.40;99.80
20526;DHT22;10421;49.142;9.232;2023-07-02T06:10:39;19.40;99.60
20526;DHT22;10421;49.142;9.232;2023-07-02T06:13:07;19.50;99.00
20526;DHT22;10421;49.142;9.232;2023-07-02T06:15:34;19.60;98.70
20526;DHT22;10421;49.142;9.232;2023-07-02T06:18:01;19.70;98.60
20526;DHT22;10421;49.142;9.232;2023-07-02T06:20:28;19.70;98.00
20526;DHT22;10421;49.142;9.232;2023-07-02T06:22:54;19.80;97.30
20526;DHT22;10421;49.142;9.232;2023-07-02T06:25:21;19.90;97.00
20526;DHT22;10421;49.142;9.232;2023-07-02T06:27:48;20.10;96.80
20526;DHT22;10421;49.142;9.232;2023-07-02T06:30:16;20.20;96.50
20526;DHT22;10421;49.142;9.232;2023-07-02T06:32:43;20.30;95.90
20526;DHT22;10421;49.142;9.232;2023-07-02T06:35:09;20.20;95.20
20526;DHT22;10421;49.142;9.232;2023-07-02T06:37:36;20.20;95.20
20526;DHT22;10421;49.142;9.232;2023-07-02T06:40:04;20.30;95.30
20526;DHT22;10421;49.142;9.232;2023-07-02T06:42:31;20.40;95.30
20526;DHT22;10421;49.142;9.232;2023-07-02T06:44:58;20.50;95.10
20526;DHT22;10421;49.142;9.232;2023-07-02T06:47:26;20.40;95.30
20526;DHT22;10421;49.142;9.232;2023-07-02T06:49:53;20.40;94.50
20526;DHT22;10421;49.142;9.232;2023-07-02T06:52:20;20.40;94.70
20526;DHT22;10421;49.142;9.232;2023-07-02T06:54:47;20.30;94.70
20526;DHT22;10421;49.142;9.232;2023-07-02T06:57:14;20.30;94.70
20526;DHT22;10421;49.142;9.232;2023-07-02T06:59:41;20.40;94.60
20526;DHT22;10421;49.142;9.232;2023-07-02T07:02:07;20.50;94.20
20526;DHT22;10421;49.142;9.232;2023-07-02T07:04:35;20.50;94.30
20526;DHT22;10421;49.142;9.232;2023-07-02T07:07:03;20.60;94.20
20526;DHT22;10421;49.142;9.232;2023-07-02T07:09:30;20.60;94.10
20526;DHT22;10421;49.142;9.232;2023-07-02T07:11:57;20.70;93.70
20526;DHT22;10421;49.142;9.232;2023-07-02T07:14:23;20.70;93.50
20526;DHT22;10421;49.142;9.232;2023-07-02T07:16:50;20.70;93.40
20526;DHT22;10421;49.142;9.232;2023-07-02T07:19:17;20.70;93.10
20526;DHT22;10421;49.142;9.232;2023-07-02T07:21:45;20.60;92.20
20526;DHT22;10421;49.142;9.232;2023-07-02T07:24:12;20.70;91.80
20526;DHT22;10421;49.142;9.232;2023-07-02T07:26:38;20.80;90.70
20526;DHT22;10421;49.142;9.232;2023-07-02T07:29:05;20.80;90.60
20526;DHT22;10421;49.142;9.232;2023-07-02T07:31:32;20.70;90.40
20526;DHT22;10421;49.142;9.232;2023-07-02T07:33:59;20.90;90.50
20526;DHT22;10421;49.142;9.232;2023-07-02T07:36:25;21.00;90.40
20526;DHT22;10421;49.142;9.232;2023-07-02T07:38:53;21.00;90.20
20526;DHT22;10421;49.142;9.232;2023-07-02T07:41:20;21.10;90.00
20526;DHT22;10421;49.142;9.232;2023-07-02T07:43:47;21.10;90.00
20526;DHT22;10421;49.142;9.232;2023-07-02T07:46:14;21.20;90.00
20526;DHT22;10421;49.142;9.232;2023-07-02T07:48:40;21.30;90.10
20526;DHT22;10421;49.142;9.232;2023-07-02T07:51:07;21.40;90.00
20526;DHT22;10421;49.142;9.232;2023-07-02T07:53:37;21.50;89.80
20526;DHT22;10421;49.142;9.232;2023-07-02T07:56:05;21.60;89.30
20526;DHT22;10421;49.142;9.232;2023-07-02T07:58:32;21.60;89.30
20526;DHT22;10421;49.142;9.232;2023-07-02T08:00:59;21.60;88.50
20526;DHT22;10421;49.142;9.232;2023-07-02T08:03:26;21.60;88.40
20526;DHT22;10421;49.142;9.232;2023-07-02T08:05:52;21.60;87.10
20526;DHT22;10421;49.142;9.232;2023-07-02T08:08:19;21.60;87.40
20526;DHT22;10421;49.142;9.232;2023-07-02T08:10:46;21.70;87.50
20526;DHT22;10421;49.142;9.232;2023-07-02T08:13:16;21.60;87.70
20526;DHT22;10421;49.142;9.232;2023-07-02T08:15:43;21.60;86.90
20526;DHT22;10421;49.142;9.232;2023-07-02T08:18:10;21.60;87.10
20526;DHT22;10421;49.142;9.232;2023-07-02T08:20:38;21.60;86.30
20526;DHT22;10421;49.142;9.232;2023-07-02T08:23:05;21.60;86.90
20526;DHT22;10421;49.142;9.232;2023-07-02T08:25:32;21.60;87.10
20526;DHT22;10421;49.142;9.232;2023-07-02T08:27:59;21.70;86.90
20526;DHT22;10421;49.142;9.232;2023-07-02T08:30:27;21.70;84.90
20526;DHT22;10421;49.142;9.232;2023-07-02T08:32:53;21.80;84.50
20526;DHT22;10421;49.142;9.232;2023-07-02T08:35:21;21.70;84.60
20526;DHT22;10421;49.142;9.232;2023-07-02T08:37:48;21.80;84.70
20526;DHT22;10421;49.142;9.232;2023-07-02T08:40:16;21.80;84.20
20526;DHT22;10421;49.142;9.232;2023-07-02T08:42:44;21.70;84.80
20526;DHT22;10421;49.142;9.232;2023-07-02T08:45:12;21.70;84.70
20526;DHT22;10421;49.142;9.232;2023-07-02T08:47:41;21.80;84.60
20526;DHT22;10421;49.142;9.232;2023-07-02T08:50:08;21.90;80.60
20526;DHT22;10421;49.142;9.232;2023-07-02T08:52:35;22.00;81.10
20526;DHT22;10421;49.142;9.232;2023-07-02T08:55:02;21.90;81.50
20526;DHT22;10421;49.142;9.232;2023-07-02T08:57:29;22.00;81.30
20526;DHT22;10421;49.142;9.232;2023-07-02T08:59:56;22.00;81.20
20526;DHT22;10421;49.142;9.232;2023-07-02T09:02:31;22.10;80.80
20526;DHT22;10421;49.142;9.232;2023-07-02T09:05:03;22.10;80.20
20526;DHT22;10421;49.142;9.232;2023-07-02T09:07:30;22.20;80.50
20526;DHT22;10421;49.142;9.232;2023-07-02T09:09:57;22.40;80.00
20526;DHT22;10421;49.142;9.232;2023-07-02T09:12:24;22.50;80.00
20526;DHT22;10421;49.142;9.232;2023-07-02T09:14:55;22.60;79.70
20526;DHT22;10421;49.142;9.232;2023-07-02T09:17:28;22.70;78.70
20526;DHT22;10421;49.142;9.232;2023-07-02T09:19:57;22.90;78.30
20526;DHT22;10421;49.142;9.232;2023-07-02T09:22:27;22.80;78.60
20526;DHT22;10421;49.142;9.232;2023-07-02T09:24:55;22.80;77.00
20526;DHT22;10421;49.142;9.232;2023-07-02T09:27:33;22.80;77.10
20526;DHT22;10421;49.142;9.232;2023-07-02T09:30:06;22.90;76.40
20526;DHT22;10421;49.142;9.232;2023-07-02T09:32:33;23.00;76.40
20526;DHT22;10421;49.142;9.232;2023-07-02T09:35:00;22.80;75.00
20526;DHT22;10421;49.142;9.232;2023-07-02T09:37:29;22.90;76.70
20526;DHT22;10421;49.142;9.232;2023-07-02T09:39:56;23.00;76.10
20526;DHT22;10421;49.142;9.232;2023-07-02T09:42:25;22.90;76.60
20526;DHT22;10421;49.142;9.232;2023-07-02T09:44:52;22.70;75.80
20526;DHT22;10421;49.142;9.232;2023-07-02T09:47:21;22.60;75.60
20526;DHT22;10421;49.142;9.232;2023-07-02T09:49:52;22.50;74.90
20526;DHT22;10421;49.142;9.232;2023-07-02T09:52:20;22.60;75.10
20526;DHT22;10421;49.142;9.232;2023-07-02T09:54:49;22.80;75.40
20526;DHT22;10421;49.142;9.232;2023-07-02T09:57:16;22.80;73.50
20526;DHT22;10421;49.142;9.232;2023-07-02T09:59:43;22.80;72.90
20526;DHT22;10421;49.142;9.232;2023-07-02T10:02:10;22.90;73.40
20526;DHT22;10421;49.142;9.232;2023-07-02T10:04:42;23.00;73.20
20526;DHT22;10421;49.142;9.232;2023-07-02T10:07:09;23.00;74.00
20526;DHT22;10421;49.142;9.232;2023-07-02T10:09:37;23.10;74.00
20526;DHT22;10421;49.142;9.232;2023-07-02T10:12:22;23.20;73.70
20526;DHT22;10421;49.142;9.232;2023-07-02T10:14:50;23.30;74.30
20526;DHT22;10421;49.142;9.232;2023-07-02T10:17:25;23.30;74.50
20526;DHT22;10421;49.142;9.232;2023-07-02T10:19:53;23.40;74.80
20526;DHT22;10421;49.142;9.232;2023-07-02T10:22:20;23.50;74.70
20526;DHT22;10421;49.142;9.232;2023-07-02T10:24:55;23.50;75.20
20526;DHT22;10421;49.142;9.232;2023-07-02T10:27:37;23.50;73.10
20526;DHT22;10421;49.142;9.232;2023-07-02T10:30:05;23.40;72.30
20526;DHT22;10421;49.142;9.232;2023-07-02T10:32:34;23.40;71.00
20526;DHT22;10421;49.142;9.232;2023-07-02T10:35:01;23.50;70.30
20526;DHT22;10421;49.142;9.232;2023-07-02T10:37:35;23.40;70.10
20526;DHT22;10421;49.142;9.232;2023-07-02T10:40:04;23.40;68.40
20526;DHT22;10421;49.142;9.232;2023-07-02T10:42:32;23.70;68.70
20526;DHT22;10421;49.142;9.232;2023-07-02T10:45:00;23.70;69.90
20526;DHT22;10421;49.142;9.232;2023-07-02T10:47:28;23.90;70.70
20526;DHT22;10421;49.142;9.232;2023-07-02T10:49:55;23.90;70.60
20526;DHT22;10421;49.142;9.232;2023-07-02T10:52:22;24.10;71.30
20526;DHT22;10421;49.142;9.232;2023-07-02T10:54:48;24.30;69.20
20526;DHT22;10421;49.142;9.232;2023-07-02T10:57:17;24.30;67.30
20526;DHT22;10421;49.142;9.232;2023-07-02T10:59:45;24.20;66.80
20526;DHT22;10421;49.142;9.232;2023-07-02T11:02:14;24.10;68.10
20526;DHT22;10421;49.142;9.232;2023-07-02T11:04:41;24.10;68.80
20526;DHT22;10421;49.142;9.232;2023-07-02T11:07:10;24.00;69.20
20526;DHT22;10421;49.142;9.232;2023-07-02T11:09:36;24.10;69.50
20526;DHT22;10421;49.142;9.232;2023-07-02T11:12:04;24.10;69.30
20526;DHT22;10421;49.142;9.232;2023-07-02T11:14:32;23.90;69.50
20526;DHT22;10421;49.142;9.232;2023-07-02T11:17:01;24.00;70.40
20526;DHT22;10421;49.142;9.232;2023-07-02T11:19:30;24.10;69.30
20526;DHT22;10421;49.142;9.232;2023-07-02T11:21:58;24.10;68.70
20526;DHT22;10421;49.142;9.232;2023-07-02T11:24:30;24.20;68.00
20526;DHT22;10421;49.142;9.232;2023-07-02T11:26:58;24.20;67.90
20526;DHT22;10421;49.142;9.232;2023-07-02T11:29:25;24.20;68.10
20526;DHT22;10421;49.142;9.232;2023-07-02T11:31:52;24.10;68.60
20526;DHT22;10421;49.142;9.232;2023-07-02T11:34:21;24.10;69.00
20526;DHT22;10421;49.142;9.232;2023-07-02T11:36:50;24.10;69.20
20526;DHT22;10421;49.142;9.232;2023-07-02T11:39:19;24.20;68.80
20526;DHT22;10421;49.142;9.232;2023-07-02T11:41:47;24.30;69.00
20526;DHT22;10421;49.142;9.232;2023-07-02T11:44:15;24.40;69.00
20526;DHT22;10421;49.142;9.232;2023-07-02T11:46:42;24.50;68.80
20526;DHT22;10421;49.142;9.232;2023-07-02T11:49:09;24.50;67.10
20526;DHT22;10421;49.142;9.232;2023-07-02T11:51:36;24.60;67.70
20526;DHT22;10421;49.142;9.232;2023-07-02T11:54:06;24.80;67.80
20526;DHT22;10421;49.142;9.232;2023-07-02T11:56:33;24.90;67.60
20526;DHT22;10421;49.142;9.232;2023-07-02T11:59:01;25.00;67.30
20526;DHT22;10421;49.142;9.232;2023-07-02T12:01:28;25.10;67.50
20526;DHT22;10421;49.142;9.232;2023-07-02T12:03:55;25.20;66.80
20526;DHT22;10421;49.142;9.232;2023-07-02T12:06:21;25.20;66.40
20526;DHT22;10421;49.142;9.232;2023-07-02T12:08:48;25.10;65.80
20526;DHT22;10421;49.142;9.232;2023-07-02T12:11:16;25.00;66.30
20526;DHT22;10421;49.142;9.232;2023-07-02T12:13:43;25.20;66.00
20526;DHT22;10421;49.142;9.232;2023-07-02T12:16:10;25.20;64.60
20526;DHT22;10421;49.142;9.232;2023-07-02T12:18:37;25.30;64.80
20526;DHT22;10421;49.142;9.232;2023-07-02T12:21:03;25.30;65.60
20526;DHT22;10421;49.142;9.232;2023-07-02T12:23:30;25.30;65.90
20526;DHT22;10421;49.142;9.232;2023-07-02T12:25:57;25.50;66.10
20526;DHT22;10421;49.142;9.232;2023-07-02T12:28:25;25.70;64.80
20526;DHT22;10421;49.142;9.232;2023-07-02T12:30:51;25.70;64.00
20526;DHT22;10421;49.142;9.232;2023-07-02T12:33:18;25.80;64.20
20526;DHT22;10421;49.142;9.232;2023-07-02T12:35:45;25.90;63.90
20526;DHT22;10421;49.142;9.232;2023-07-02T12:38:12;25.90;62.80
20526;DHT22;10421;49.142;9.232;2023-07-02T12:40:39;26.00;62.50
20526;DHT22;10421;49.142;9.232;2023-07-02T12:43:06;26.00;62.80
20526;DHT22;10421;49.142;9.232;2023-07-02T12:45:34;26.00;63.10
20526;DHT22;10421;49.142;9.232;2023-07-02T12:48:01;26.10;62.30
20526;DHT22;10421;49.142;9.232;2023-07-02T12:50:27;26.30;61.10
20526;DHT22;10421;49.142;9.232;2023-07-02T12:52:54;26.40;60.60
20526;DHT22;10421;49.142;9.232;2023-07-02T12:55:21;26.50;60.00
20526;DHT22;10421;49.142;9.232;2023-07-02T12:57:47;26.60;59.50
20526;DHT22;10421;49.142;9.232;2023-07-02T13:00:15;26.70;60.30
20526;DHT22;10421;49.142;9.232;2023-07-02T13:02:45;26.80;59.80
20526;DHT22;10421;49.142;9.232;2023-07-02T13:05:13;26.90;58.40
20526;DHT22;10421;49.142;9.232;2023-07-02T13:07:40;26.90;58.50
20526;DHT22;10421;49.142;9.232;2023-07-02T13:10:07;26.80;58.80
20526;DHT22;10421;49.142;9.232;2023-07-02T13:12:34;26.80;59.20
20526;DHT22;10421;49.142;9.232;2023-07-02T13:15:00;26.80;59.30
20526;DHT22;10421;49.142;9.232;2023-07-02T13:17:27;26.90;59.20
20526;DHT22;10421;49.142;9.232;2023-07-02T13:19:55;26.90;59.70
20526;DHT22;10421;49.142;9.232;2023-07-02T13:22:22;26.90;59.20
20526;DHT22;10421;49.142;9.232;2023-07-02T13:24:49;26.90;58.70
20526;DHT22;10421;49.142;9.232;2023-07-02T13:27:17;26.90;58.90
20526;DHT22;10421;49.142;9.232;2023-07-02T13:29:44;26.90;58.80
20526;DHT22;10421;49.142;9.232;2023-07-02T13:32:11;27.00;58.50
20526;DHT22;10421;49.142;9.232;2023-07-02T13:34:38;27.00;58.40
20526;DHT22;10421;49.142;9.232;2023-07-02T13:37:07;27.00;58.40
20526;DHT22;10421;49.142;9.232;2023-07-02T13:39:34;27.00;58.30
20526;DHT22;10421;49.142;9.232;2023-07-02T13:42:01;27.10;56.90
20526;DHT22;10421;49.142;9.232;2023-07-02T13:44:28;27.10;56.00
20526;DHT22;10421;49.142;9.232;2023-07-02T13:46:54;27.10;55.70
20526;DHT22;10421;49.142;9.232;2023-07-02T13:49:21;27.20;55.50
20526;DHT22;10421;49.142;9.232;2023-07-02T13:51:48;27.30;55.10
20526;DHT22;10421;49.142;9.232;2023-07-02T13:54:17;27.20;54.10
20526;DHT22;10421;49.142;9.232;2023-07-02T13:56:45;27.10;54.40
20526;DHT22;10421;49.142;9.232;2023-07-02T13:59:13;27.10;55.00
20526;DHT22;10421;49.142;9.232;2023-07-02T14:01:40;27.10;55.40
20526;DHT22;10421;49.142;9.232;2023-07-02T14:04:07;27.10;55.70
20526;DHT22;10421;49.142;9.232;2023-07-02T14:06:34;27.20;56.00
20526;DHT22;10421;49.142;9.232;2023-07-02T14:09:00;27.10;56.20
20526;DHT22;10421;49.142;9.232;2023-07-02T14:11:28;27.00;55.80
20526;DHT22;10421;49.142;9.232;2023-07-02T14:13:55;27.00;55.70
20526;DHT22;10421;49.142;9.232;2023-07-02T14:16:23;27.00;55.90
20526;DHT22;10421;49.142;9.232;2023-07-02T14:18:55;27.20;55.70
20526;DHT22;10421;49.142;9.232;2023-07-02T14:21:22;27.20;55.10
20526;DHT22;10421;49.142;9.232;2023-07-02T14:23:49;27.40;54.30
20526;DHT22;10421;49.142;9.232;2023-07-02T14:26:15;27.50;54.60
20526;DHT22;10421;49.142;9.232;2023-07-02T14:28:42;27.60;54.00
20526;DHT22;10421;49.142;9.232;2023-07-02T14:31:09;27.70;54.50
20526;DHT22;10421;49.142;9.232;2023-07-02T14:33:38;27.70;54.40
20526;DHT22;10421;49.142;9.232;2023-07-02T14:36:06;27.80;52.90
20526;DHT22;10421;49.142;9.232;2023-07-02T14:38:33;27.80;51.60
20526;DHT22;10421;49.142;9.232;2023-07-02T14:41:02;27.90;50.90
20526;DHT22;10421;49.142;9.232;2023-07-02T14:43:30;27.90;51.70
20526;DHT22;10421;49.142;9.232;2023-07-02T14:45:58;27.90;52.30
20526;DHT22;10421;49.142;9.232;2023-07-02T14:48:26;27.90;52.50
20526;DHT22;10421;49.142;9.232;2023-07-02T14:50:55;27.80;53.10
20526;DHT22;10421;49.142;9.232;2023-07-02T14:53:24;27.80;52.90
20526;DHT22;10421;49.142;9.232;2023-07-02T14:55:53;27.70;51.90
20526;DHT22;10421;49.142;9.232;2023-07-02T14:58:20;27.70;52.30
20526;DHT22;10421;49.142;9.232;2023-07-02T15:00:49;27.70;52.20
20526;DHT22;10421;49.142;9.232;2023-07-02T15:03:17;27.70;52.70
20526;DHT22;10421;49.142;9.232;2023-07-02T15:05:45;27.70;53.00
20526;DHT22;10421;49.142;9.232;2023-07-02T15:08:14;27.70;52.80
20526;DHT22;10421;49.142;9.232;2023-07-02T15:10:44;27.70;52.80
20526;DHT22;10421;49.142;9.232;2023-07-02T15:13:11;27.70;52.50
20526;DHT22;10421;49.142;9.232;2023-07-02T15:15:38;27.70;52.80
20526;DHT22;10421;49.142;9.232;2023-07-02T15:18:05;27.80;52.80
20526;DHT22;10421;49.142;9.232;2023-07-02T15:20:33;27.90;52.00
20526;DHT22;10421;49.142;9.232;2023-07-02T15:22:59;27.70;50.90
20526;DHT22;10421;49.142;9.232;2023-07-02T15:25:29;27.80;51.10
20526;DHT22;10421;49.142;9.232;2023-07-02T15:27:56;27.90;50.80
20526;DHT22;10421;49.142;9.232;2023-07-02T15:30:24;27.90;50.50
20526;DHT22;10421;49.142;9.232;2023-07-02T15:32:50;27.80;49.60